Seastreak Highlands — WDE4031 — position and weather

sailwx.info

Track history (hours):
 
Tides and Currents Weather Stations Pressure Air Temp Water Temp Dewpoint Dewpoint Depression Visibility Wind Speed Wind Dir Waves Ship Positions

Seastreak Highlands

Owner: Seastreak llc, atlantic highlands, NJ. More information available from US FCC via Universal Licensing System and Coast Guard Vessel Documentation Center.

Last reported at 2017-Jun-27 22:30 UTC. Time now 2017-Jun-27 22:35 UTC.
Position N 40°25' W 074°00'.

Length 44 m.

Type: High speed craft. MMSI: 367347670.

Date/timePositionNaut miles runAvg speedWind from/ knotsBaromVisibWave heightAir tempDewpointWater temp
2017-Jun-27 22:30N 40°25' W 074°00'6 9.9
2017-Jun-27 21:57N 40°31' W 074°02'1126.3
2017-Jun-27 21:30N 40°42' W 074°00'3 6.1
2017-Jun-27 21:01N 40°45' W 073°58'1019.0
2017-Jun-27 20:30N 40°36' W 074°03'1121.0
2017-Jun-27 20:00N 40°25' W 074°02'4 8.2
2017-Jun-27 19:30N 40°29' W 074°02'1326.0
2017-Jun-27 19:00N 40°42' W 074°00'3 5.9
2017-Jun-27 18:30N 40°45' W 073°58'0 0.0
2017-Jun-27 18:00N 40°45' W 073°58'0 0.0
2017-Jun-27 17:30N 40°45' W 073°58'0 0.0
2017-Jun-27 17:00N 40°45' W 073°58'0 0.0
2017-Jun-27 16:30N 40°45' W 073°58'0 0.0
2017-Jun-27 16:00N 40°45' W 073°58'0 0.0
2017-Jun-27 15:30N 40°45' W 073°58'0 0.0
2017-Jun-27 15:00N 40°45' W 073°58'0 0.0
2017-Jun-27 14:00N 40°45' W 073°58'611.7
2017-Jun-27 13:31N 40°40' W 074°02'1422.3
2017-Jun-27 12:52N 40°25' W 074°02'1129.8
2017-Jun-27 12:30N 40°36' W 074°03'1019.1
2017-Jun-27 12:01N 40°45' W 073°58'714.9
2017-Jun-27 11:31N 40°38' W 074°03'1324.1
2017-Jun-27 10:59N 40°25' W 074°02'2 0.2
2017-Jun-27 00:42N 40°25' W 073°60'2 8.2
2017-Jun-27 00:30N 40°25' W 074°02'1223.2
2017-Jun-27 00:00N 40°37' W 074°03'816.8
2017-Jun-26 23:30N 40°45' W 073°58'713.5
2017-Jun-26 23:01N 40°39' W 074°02'1425.7
2017-Jun-26 22:27N 40°25' W 073°60'813.8
2017-Jun-26 21:53N 40°32' W 074°02'1026.4
2017-Jun-26 21:30N 40°42' W 074°00'3 5.9
2017-Jun-26 21:00N 40°45' W 073°58'1020.5
2017-Jun-26 20:30N 40°35' W 074°03'1019.6
2017-Jun-26 20:00N 40°25' W 074°02'2 3.9
2017-Jun-26 19:30N 40°27' W 074°02'1530.3
2017-Jun-26 19:00N 40°42' W 074°00'3 5.8
2017-Jun-26 18:31N 40°45' W 073°58'0 0.1
2017-Jun-26 18:00N 40°45' W 073°58'0 0.0
2017-Jun-26 17:30N 40°45' W 073°58'0 0.0
2017-Jun-26 17:00N 40°45' W 073°58'0 0.0
2017-Jun-26 16:30N 40°45' W 073°58'0 0.0
2017-Jun-26 16:00N 40°45' W 073°58'0 0.0
2017-Jun-26 15:30N 40°45' W 073°58'0 0.0
2017-Jun-26 15:01N 40°45' W 073°58'0 0.0
2017-Jun-26 14:31N 40°45' W 073°58'1414.2
2017-Jun-26 13:30N 40°31' W 074°02'1 2.3
2017-Jun-26 12:53N 40°32' W 074°03'1129.3
2017-Jun-26 12:30N 40°42' W 073°59'1 2.7
2017-Jun-26 12:01N 40°42' W 074°00'1220.1
2017-Jun-26 11:25N 40°30' W 074°02'5 9.2
2017-Jun-26 10:54N 40°25' W 074°02'2 3.9
2017-Jun-26 10:26N 40°25' W 073°60'0 0.0
2017-Jun-25 23:59N 40°25' W 073°60'1327.5
2017-Jun-25 23:31N 40°37' W 074°03'816.2
2017-Jun-25 23:00N 40°45' W 073°58'612.2
2017-Jun-25 22:31N 40°39' W 074°02'8 7.7
2017-Jun-25 21:26N 40°31' W 074°02'1126.2
2017-Jun-25 21:00N 40°42' W 074°00'0 0.9
2017-Jun-25 20:31N 40°42' W 073°60'1428.0
2017-Jun-25 20:00N 40°28' W 074°01'3 4.1
2017-Jun-25 19:10N 40°25' W 073°60'3 1.0
2017-Jun-25 15:47N 40°28' W 074°01'715.9
2017-Jun-25 15:21N 40°35' W 074°03'822.3
2017-Jun-25 15:00N 40°42' W 074°00'3 5.9
2017-Jun-25 14:31N 40°45' W 073°58'2015.5
2017-Jun-25 13:13N 40°25' W 073°60'310.0
2017-Jun-25 12:53N 40°28' W 074°01'1128.3
2017-Jun-25 12:31N 40°38' W 074°02'713.8
2017-Jun-25 12:00N 40°45' W 073°58'2 4.6
2017-Jun-25 11:31N 40°42' W 073°59'1325.0
2017-Jun-25 11:00N 40°30' W 074°02'4 0.4
2017-Jun-25 02:03N 40°26' W 074°01'733.3
2017-Jun-25 01:51N 40°33' W 074°02'926.8
2017-Jun-25 01:30N 40°42' W 074°00'3 5.7
2017-Jun-25 01:00N 40°45' W 073°58'3 6.0
2017-Jun-25 00:30N 40°42' W 074°00'1427.8
2017-Jun-25 00:00N 40°28' W 074°01'4 5.5
2017-Jun-24 23:18N 40°32' W 074°02'929.5
2017-Jun-24 23:01N 40°41' W 074°01'4 7.7
2017-Jun-24 22:30N 40°44' W 073°58'1529.8
2017-Jun-24 22:00N 40°29' W 074°01'7 8.4
2017-Jun-24 21:10N 40°36' W 074°02'530.8
2017-Jun-24 21:00N 40°41' W 074°01'4 8.5
2017-Jun-24 20:30N 40°45' W 073°58'1021.6
2017-Jun-24 20:00N 40°35' W 074°02'1020.2
2017-Jun-24 19:30N 40°25' W 073°60'0 0.1
2017-Jun-24 18:56N 40°25' W 073°60'3 7.7
2017-Jun-24 18:30N 40°28' W 074°01'1121.9
2017-Jun-24 18:01N 40°39' W 074°02'713.5
2017-Jun-24 17:30N 40°45' W 073°58'816.4
2017-Jun-24 17:00N 40°37' W 074°03'1316.1
2017-Jun-24 16:12N 40°25' W 073°60'3 6.7
2017-Jun-24 15:44N 40°28' W 074°01'617.1
2017-Jun-24 15:22N 40°34' W 074°02'923.9
2017-Jun-24 15:01N 40°42' W 074°00'3 3.4
2017-Jun-24 14:00N 40°39' W 074°02'1111.0
2017-Jun-24 12:59N 40°28' W 074°01'1122.4
2017-Jun-24 12:31N 40°38' W 074°03'714.1
2017-Jun-24 12:00N 40°45' W 073°58'3 5.9
2017-Jun-24 11:31N 40°42' W 074°00'1224.2
2017-Jun-24 11:00N 40°30' W 074°02'5 0.5
2017-Jun-24 00:33N 40°25' W 074°00'920.2
2017-Jun-24 00:05N 40°34' W 074°02'332.0
2017-Jun-24 00:00N 40°36' W 074°03'917.8
2017-Jun-23 23:31N 40°45' W 073°58'1223.6
2017-Jun-23 23:00N 40°33' W 074°02'1 1.0
2017-Jun-23 22:02N 40°32' W 074°02'127.6
2017-Jun-23 21:59N 40°33' W 074°02'1211.9
2017-Jun-23 21:00N 40°45' W 073°58'1324.3
2017-Jun-23 20:29N 40°32' W 074°02'714.7
2017-Jun-23 20:00N 40°25' W 074°02'914.8
2017-Jun-23 19:23N 40°34' W 074°02'821.6
2017-Jun-23 19:00N 40°42' W 074°00'3 5.8
2017-Jun-23 18:30N 40°45' W 073°58'0 0.0
2017-Jun-23 18:00N 40°45' W 073°58'0 0.0
2017-Jun-23 17:30N 40°45' W 073°58'0 0.0
2017-Jun-23 17:00N 40°45' W 073°58'0 0.0
2017-Jun-23 16:30N 40°45' W 073°58'0 0.0
2017-Jun-23 16:00N 40°45' W 073°58'0 0.0
2017-Jun-23 15:30N 40°45' W 073°58'0 0.1
2017-Jun-23 15:00N 40°45' W 073°58'0 0.1
2017-Jun-23 14:30N 40°45' W 073°58'3 3.1
2017-Jun-23 13:31N 40°42' W 074°00'1519.5
2017-Jun-23 12:43N 40°27' W 074°01'728.8
2017-Jun-23 12:30N 40°33' W 074°02'1224.2
2017-Jun-23 12:00N 40°45' W 073°58'510.4
2017-Jun-23 11:31N 40°40' W 074°01'1522.0
2017-Jun-23 10:50N 40°25' W 074°02'2 0.2
2017-Jun-23 00:48N 40°25' W 073°60'712.0
2017-Jun-23 00:14N 40°31' W 074°02'731.0
2017-Jun-23 00:01N 40°38' W 074°03'714.3
2017-Jun-22 23:31N 40°45' W 073°58'1122.8
2017-Jun-22 23:00N 40°34' W 074°02'2 1.4
2017-Jun-22 21:53N 40°35' W 074°03'719.5
2017-Jun-22 21:30N 40°42' W 074°00'3 5.8
2017-Jun-22 21:00N 40°45' W 073°58'919.1
2017-Jun-22 20:30N 40°36' W 074°03'1119.5
2017-Jun-22 19:58N 40°25' W 074°02'4 7.4
2017-Jun-22 19:29N 40°29' W 074°02'1428.7
2017-Jun-22 19:00N 40°42' W 074°00'3 6.0
2017-Jun-22 18:31N 40°45' W 073°58'0 0.0
2017-Jun-22 18:00N 40°45' W 073°58'0 0.0
2017-Jun-22 17:30N 40°45' W 073°58'0 0.1
2017-Jun-22 17:00N 40°45' W 073°58'0 0.1
2017-Jun-22 16:30N 40°45' W 073°58'0 0.0
2017-Jun-22 16:00N 40°45' W 073°58'0 0.0
2017-Jun-22 15:30N 40°45' W 073°58'0 0.0
2017-Jun-22 15:00N 40°45' W 073°58'0 0.0
2017-Jun-22 14:30N 40°45' W 073°58'6 6.3
2017-Jun-22 13:31N 40°39' W 074°02'1012.2
2017-Jun-22 12:40N 40°29' W 074°01'634.9
2017-Jun-22 12:30N 40°34' W 074°03'1121.4
2017-Jun-22 12:00N 40°45' W 073°58'613.0
2017-Jun-22 11:30N 40°39' W 074°02'1421.8
2017-Jun-22 10:52N 40°25' W 074°02'2 5.0
2017-Jun-22 10:30N 40°25' W 073°60'0 0.0
2017-Jun-22 00:41N 40°25' W 073°60'2 9.3
2017-Jun-22 00:29N 40°25' W 074°02'1225.5
2017-Jun-22 00:00N 40°37' W 074°03'816.3
2017-Jun-21 23:30N 40°45' W 073°58'611.7
2017-Jun-21 23:01N 40°40' W 074°02'1530.0
2017-Jun-21 22:30N 40°25' W 073°60'510.1
2017-Jun-21 22:00N 40°29' W 074°02'1326.2
2017-Jun-21 21:31N 40°42' W 074°00'3 5.8
2017-Jun-21 21:00N 40°45' W 073°58'1019.5
2017-Jun-21 20:30N 40°36' W 074°03'1020.2
2017-Jun-21 20:00N 40°25' W 074°02'610.6
2017-Jun-21 19:23N 40°32' W 074°02'1127.9
2017-Jun-21 19:01N 40°42' W 074°00'3 5.7
2017-Jun-21 18:30N 40°45' W 073°58'0 0.0
2017-Jun-21 18:00N 40°45' W 073°58'0 0.0
2017-Jun-21 17:30N 40°45' W 073°58'0 0.0
2017-Jun-21 17:01N 40°45' W 073°58'0 0.0
2017-Jun-21 16:30N 40°45' W 073°58'0 0.0
2017-Jun-21 16:01N 40°45' W 073°58'0 0.0
2017-Jun-21 15:31N 40°45' W 073°58'0 0.0
2017-Jun-21 15:00N 40°45' W 073°58'0 0.0
2017-Jun-21 14:30N 40°45' W 073°58'5 5.0
2017-Jun-21 13:31N 40°40' W 074°02'1520.6
2017-Jun-21 12:46N 40°25' W 074°02'828.7
2017-Jun-21 12:31N 40°33' W 074°02'1224.4
2017-Jun-21 12:00N 40°45' W 073°58'713.3
2017-Jun-21 11:31N 40°39' W 074°02'1419.2
2017-Jun-21 10:48N 40°25' W 074°02'2 0.2
2017-Jun-21 00:40N 40°25' W 073°60'1 6.8
2017-Jun-21 00:29N 40°25' W 074°01'1021.6
2017-Jun-21 00:01N 40°36' W 074°03'918.9
2017-Jun-20 23:30N 40°45' W 073°58'714.6
2017-Jun-20 23:01N 40°38' W 074°02'3 2.4
2017-Jun-20 21:51N 40°35' W 074°03'720.6
2017-Jun-20 21:30N 40°42' W 074°00'3 5.7
2017-Jun-20 21:00N 40°45' W 073°58'918.8
2017-Jun-20 20:31N 40°36' W 074°03'4 3.3
2017-Jun-20 19:23N 40°32' W 074°02'1026.4
2017-Jun-20 19:00N 40°42' W 074°00'3 5.9
2017-Jun-20 18:30N 40°45' W 073°58'0 0.0
2017-Jun-20 18:00N 40°45' W 073°58'0 0.0
2017-Jun-20 17:30N 40°45' W 073°58'0 0.0
2017-Jun-20 17:00N 40°45' W 073°58'0 0.0
2017-Jun-20 16:30N 40°45' W 073°58'0 0.1
2017-Jun-20 16:00N 40°45' W 073°58'0 0.1
2017-Jun-20 15:30N 40°45' W 073°58'0 0.0
2017-Jun-20 15:00N 40°45' W 073°58'0 0.1
2017-Jun-20 14:00N 40°45' W 073°58'5 9.6
2017-Jun-20 13:31N 40°41' W 074°02'1529.4
2017-Jun-20 12:59N 40°25' W 074°02'918.7
2017-Jun-20 12:30N 40°34' W 074°03'1122.3
2017-Jun-20 12:01N 40°45' W 073°58'713.9
2017-Jun-20 11:30N 40°38' W 074°02'13 1.5
2017-Jun-20 02:45N 40°25' W 074°01'818.8
2017-Jun-20 02:19N 40°34' W 074°02'928.7
2017-Jun-20 02:01N 40°42' W 074°00'3 5.9
2017-Jun-20 01:31N 40°45' W 073°58'918.8
2017-Jun-20 01:00N 40°36' W 074°02'1018.8
2017-Jun-20 00:27N 40°25' W 074°01'1022.7
2017-Jun-20 00:00N 40°36' W 074°03'1019.1
2017-Jun-19 23:30N 40°45' W 073°58'612.0
2017-Jun-19 23:01N 40°39' W 074°02'6 5.4
2017-Jun-19 21:52N 40°33' W 074°02'926.0
2017-Jun-19 21:30N 40°42' W 074°00'3 5.8
2017-Jun-19 21:00N 40°45' W 073°58'816.7
2017-Jun-19 20:30N 40°37' W 074°03'1217.6
2017-Jun-19 19:50N 40°25' W 074°01'614.1
2017-Jun-19 19:23N 40°32' W 074°02'1127.8
2017-Jun-19 19:01N 40°42' W 074°00'3 5.8
2017-Jun-19 18:30N 40°45' W 073°58'0 0.0
2017-Jun-19 18:00N 40°45' W 073°58'0 0.0
2017-Jun-19 17:30N 40°45' W 073°58'817.2
2017-Jun-19 17:00N 40°37' W 074°03'1010.3
2017-Jun-19 16:01N 40°27' W 074°01'127.8
2017-Jun-19 16:00N 40°28' W 074°01'1224.5
2017-Jun-19 15:31N 40°40' W 074°01'510.3
2017-Jun-19 15:01N 40°44' W 073°58'815.3
2017-Jun-19 14:31N 40°37' W 074°03'8 7.2
2017-Jun-19 13:28N 40°30' W 074°02'1226.8
2017-Jun-19 13:00N 40°42' W 074°00'3 5.8
2017-Jun-19 12:30N 40°45' W 073°58'815.6
2017-Jun-19 12:01N 40°38' W 074°03'1213.3
2017-Jun-19 11:05N 40°25' W 074°02'2 0.2
2017-Jun-19 01:59N 40°27' W 074°01'1532.2
2017-Jun-19 01:31N 40°42' W 074°00'3 5.8
2017-Jun-19 01:00N 40°45' W 073°58'3 5.9
2017-Jun-19 00:30N 40°42' W 074°00'1427.3
2017-Jun-19 00:00N 40°29' W 074°02'5 6.2
2017-Jun-18 23:11N 40°34' W 074°02'632.7
2017-Jun-18 23:00N 40°39' W 074°02'611.5
2017-Jun-18 22:30N 40°45' W 073°58'1528.3
2017-Jun-18 22:00N 40°30' W 074°02'0 0.3
2017-Jun-18 21:16N 40°30' W 074°02'831.8
2017-Jun-18 21:00N 40°38' W 074°03'714.1
2017-Jun-18 20:30N 40°45' W 073°58'1122.5
2017-Jun-18 20:00N 40°34' W 074°02'9 5.8
2017-Jun-18 18:22N 40°25' W 073°60'718.9
2017-Jun-18 17:59N 40°32' W 074°02'1122.1
2017-Jun-18 17:31N 40°42' W 074°00'2 4.8
2017-Jun-18 17:01N 40°40' W 074°02'1512.3
2017-Jun-18 15:45N 40°25' W 073°60'819.6
2017-Jun-18 15:20N 40°32' W 074°02'1029.8
2017-Jun-18 15:00N 40°42' W 074°00'3 3.3
2017-Jun-18 14:01N 40°39' W 074°02'11 9.5
2017-Jun-18 12:49N 40°28' W 074°01'824.4
2017-Jun-18 12:30N 40°36' W 074°03'1019.4
2017-Jun-18 12:00N 40°45' W 073°58'2 4.6
2017-Jun-18 11:31N 40°42' W 073°59'1122.8
2017-Jun-18 11:00N 40°31' W 074°02'6 0.7
2017-Jun-18 02:13N 40°25' W 074°00'524.3
2017-Jun-18 02:00N 40°30' W 074°02'1224.7
2017-Jun-18 01:30N 40°42' W 074°00'3 5.7
2017-Jun-18 01:00N 40°45' W 073°58'1 1.6
2017-Jun-18 00:31N 40°44' W 073°58'1019.3
2017-Jun-18 00:00N 40°35' W 074°02'1018.3
2017-Jun-17 23:26N 40°25' W 073°60'1329.7
2017-Jun-17 23:00N 40°37' W 074°03'816.2
2017-Jun-17 22:30N 40°45' W 073°58'  
Track history (hours):
 
Tides and Currents Weather Stations Pressure Air Temp Water Temp Dewpoint Dewpoint Depression Visibility Wind Speed Wind Dir Waves Ship Positions

Seastreak Highlands

Owner: Seastreak llc, atlantic highlands, NJ. More information available from US FCC via Universal Licensing System and Coast Guard Vessel Documentation Center.

Last reported at 2017-Jun-27 22:30 UTC. Time now 2017-Jun-27 22:35 UTC.
Position N 40°25' W 074°00'.

Length 44 m.

Type: High speed craft. MMSI: 367347670.

Date/timePositionNaut miles runAvg speedWind from/ knotsBaromVisibWave heightAir tempDewpointWater temp
2017-Jun-27 22:30N 40°25' W 074°00'6 9.9
2017-Jun-27 21:57N 40°31' W 074°02'1126.3
2017-Jun-27 21:30N 40°42' W 074°00'3 6.1
2017-Jun-27 21:01N 40°45' W 073°58'1019.0
2017-Jun-27 20:30N 40°36' W 074°03'1121.0
2017-Jun-27 20:00N 40°25' W 074°02'4 8.2
2017-Jun-27 19:30N 40°29' W 074°02'1326.0
2017-Jun-27 19:00N 40°42' W 074°00'3 5.9
2017-Jun-27 18:30N 40°45' W 073°58'0 0.0
2017-Jun-27 18:00N 40°45' W 073°58'0 0.0
2017-Jun-27 17:30N 40°45' W 073°58'0 0.0
2017-Jun-27 17:00N 40°45' W 073°58'0 0.0
2017-Jun-27 16:30N 40°45' W 073°58'0 0.0
2017-Jun-27 16:00N 40°45' W 073°58'0 0.0
2017-Jun-27 15:30N 40°45' W 073°58'0 0.0
2017-Jun-27 15:00N 40°45' W 073°58'0 0.0
2017-Jun-27 14:00N 40°45' W 073°58'611.7
2017-Jun-27 13:31N 40°40' W 074°02'1422.3
2017-Jun-27 12:52N 40°25' W 074°02'1129.8
2017-Jun-27 12:30N 40°36' W 074°03'1019.1
2017-Jun-27 12:01N 40°45' W 073°58'714.9
2017-Jun-27 11:31N 40°38' W 074°03'1324.1
2017-Jun-27 10:59N 40°25' W 074°02'2 0.2
2017-Jun-27 00:42N 40°25' W 073°60'2 8.2
2017-Jun-27 00:30N 40°25' W 074°02'1223.2
2017-Jun-27 00:00N 40°37' W 074°03'816.8
2017-Jun-26 23:30N 40°45' W 073°58'713.5
2017-Jun-26 23:01N 40°39' W 074°02'1425.7
2017-Jun-26 22:27N 40°25' W 073°60'813.8
2017-Jun-26 21:53N 40°32' W 074°02'1026.4
2017-Jun-26 21:30N 40°42' W 074°00'3 5.9
2017-Jun-26 21:00N 40°45' W 073°58'1020.5
2017-Jun-26 20:30N 40°35' W 074°03'1019.6
2017-Jun-26 20:00N 40°25' W 074°02'2 3.9
2017-Jun-26 19:30N 40°27' W 074°02'1530.3
2017-Jun-26 19:00N 40°42' W 074°00'3 5.8
2017-Jun-26 18:31N 40°45' W 073°58'0 0.1
2017-Jun-26 18:00N 40°45' W 073°58'0 0.0
2017-Jun-26 17:30N 40°45' W 073°58'0 0.0
2017-Jun-26 17:00N 40°45' W 073°58'0 0.0
2017-Jun-26 16:30N 40°45' W 073°58'0 0.0
2017-Jun-26 16:00N 40°45' W 073°58'0 0.0
2017-Jun-26 15:30N 40°45' W 073°58'0 0.0
2017-Jun-26 15:01N 40°45' W 073°58'0 0.0
2017-Jun-26 14:31N 40°45' W 073°58'1414.2
2017-Jun-26 13:30N 40°31' W 074°02'1 2.3
2017-Jun-26 12:53N 40°32' W 074°03'1129.3
2017-Jun-26 12:30N 40°42' W 073°59'1 2.7
2017-Jun-26 12:01N 40°42' W 074°00'1220.1
2017-Jun-26 11:25N 40°30' W 074°02'5 9.2
2017-Jun-26 10:54N 40°25' W 074°02'2 3.9
2017-Jun-26 10:26N 40°25' W 073°60'0 0.0
2017-Jun-25 23:59N 40°25' W 073°60'1327.5
2017-Jun-25 23:31N 40°37' W 074°03'816.2
2017-Jun-25 23:00N 40°45' W 073°58'612.2
2017-Jun-25 22:31N 40°39' W 074°02'8 7.7
2017-Jun-25 21:26N 40°31' W 074°02'1126.2
2017-Jun-25 21:00N 40°42' W 074°00'0 0.9
2017-Jun-25 20:31N 40°42' W 073°60'1428.0
2017-Jun-25 20:00N 40°28' W 074°01'3 4.1
2017-Jun-25 19:10N 40°25' W 073°60'3 1.0
2017-Jun-25 15:47N 40°28' W 074°01'715.9
2017-Jun-25 15:21N 40°35' W 074°03'822.3
2017-Jun-25 15:00N 40°42' W 074°00'3 5.9
2017-Jun-25 14:31N 40°45' W 073°58'2015.5
2017-Jun-25 13:13N 40°25' W 073°60'310.0
2017-Jun-25 12:53N 40°28' W 074°01'1128.3
2017-Jun-25 12:31N 40°38' W 074°02'713.8
2017-Jun-25 12:00N 40°45' W 073°58'2 4.6
2017-Jun-25 11:31N 40°42' W 073°59'1325.0
2017-Jun-25 11:00N 40°30' W 074°02'4 0.4
2017-Jun-25 02:03N 40°26' W 074°01'733.3
2017-Jun-25 01:51N 40°33' W 074°02'926.8
2017-Jun-25 01:30N 40°42' W 074°00'3 5.7
2017-Jun-25 01:00N 40°45' W 073°58'3 6.0
2017-Jun-25 00:30N 40°42' W 074°00'1427.8
2017-Jun-25 00:00N 40°28' W 074°01'4 5.5
2017-Jun-24 23:18N 40°32' W 074°02'929.5
2017-Jun-24 23:01N 40°41' W 074°01'4 7.7
2017-Jun-24 22:30N 40°44' W 073°58'1529.8
2017-Jun-24 22:00N 40°29' W 074°01'7 8.4
2017-Jun-24 21:10N 40°36' W 074°02'530.8
2017-Jun-24 21:00N 40°41' W 074°01'4 8.5
2017-Jun-24 20:30N 40°45' W 073°58'1021.6
2017-Jun-24 20:00N 40°35' W 074°02'1020.2
2017-Jun-24 19:30N 40°25' W 073°60'0 0.1
2017-Jun-24 18:56N 40°25' W 073°60'3 7.7
2017-Jun-24 18:30N 40°28' W 074°01'1121.9
2017-Jun-24 18:01N 40°39' W 074°02'713.5
2017-Jun-24 17:30N 40°45' W 073°58'816.4
2017-Jun-24 17:00N 40°37' W 074°03'1316.1
2017-Jun-24 16:12N 40°25' W 073°60'3 6.7
2017-Jun-24 15:44N 40°28' W 074°01'617.1
2017-Jun-24 15:22N 40°34' W 074°02'923.9
2017-Jun-24 15:01N 40°42' W 074°00'3 3.4
2017-Jun-24 14:00N 40°39' W 074°02'1111.0
2017-Jun-24 12:59N 40°28' W 074°01'1122.4
2017-Jun-24 12:31N 40°38' W 074°03'714.1
2017-Jun-24 12:00N 40°45' W 073°58'3 5.9
2017-Jun-24 11:31N 40°42' W 074°00'1224.2
2017-Jun-24 11:00N 40°30' W 074°02'5 0.5
2017-Jun-24 00:33N 40°25' W 074°00'920.2
2017-Jun-24 00:05N 40°34' W 074°02'332.0
2017-Jun-24 00:00N 40°36' W 074°03'917.8
2017-Jun-23 23:31N 40°45' W 073°58'1223.6
2017-Jun-23 23:00N 40°33' W 074°02'1 1.0
2017-Jun-23 22:02N 40°32' W 074°02'127.6
2017-Jun-23 21:59N 40°33' W 074°02'1211.9
2017-Jun-23 21:00N 40°45' W 073°58'1324.3
2017-Jun-23 20:29N 40°32' W 074°02'714.7
2017-Jun-23 20:00N 40°25' W 074°02'914.8
2017-Jun-23 19:23N 40°34' W 074°02'821.6
2017-Jun-23 19:00N 40°42' W 074°00'3 5.8
2017-Jun-23 18:30N 40°45' W 073°58'0 0.0
2017-Jun-23 18:00N 40°45' W 073°58'0 0.0
2017-Jun-23 17:30N 40°45' W 073°58'0 0.0
2017-Jun-23 17:00N 40°45' W 073°58'0 0.0
2017-Jun-23 16:30N 40°45' W 073°58'0 0.0
2017-Jun-23 16:00N 40°45' W 073°58'0 0.0
2017-Jun-23 15:30N 40°45' W 073°58'0 0.1
2017-Jun-23 15:00N 40°45' W 073°58'0 0.1
2017-Jun-23 14:30N 40°45' W 073°58'3 3.1
2017-Jun-23 13:31N 40°42' W 074°00'1519.5
2017-Jun-23 12:43N 40°27' W 074°01'728.8
2017-Jun-23 12:30N 40°33' W 074°02'1224.2
2017-Jun-23 12:00N 40°45' W 073°58'510.4
2017-Jun-23 11:31N 40°40' W 074°01'1522.0
2017-Jun-23 10:50N 40°25' W 074°02'2 0.2
2017-Jun-23 00:48N 40°25' W 073°60'712.0
2017-Jun-23 00:14N 40°31' W 074°02'731.0
2017-Jun-23 00:01N 40°38' W 074°03'714.3
2017-Jun-22 23:31N 40°45' W 073°58'1122.8
2017-Jun-22 23:00N 40°34' W 074°02'2 1.4
2017-Jun-22 21:53N 40°35' W 074°03'719.5
2017-Jun-22 21:30N 40°42' W 074°00'3 5.8
2017-Jun-22 21:00N 40°45' W 073°58'919.1
2017-Jun-22 20:30N 40°36' W 074°03'1119.5
2017-Jun-22 19:58N 40°25' W 074°02'4 7.4
2017-Jun-22 19:29N 40°29' W 074°02'1428.7
2017-Jun-22 19:00N 40°42' W 074°00'3 6.0
2017-Jun-22 18:31N 40°45' W 073°58'0 0.0
2017-Jun-22 18:00N 40°45' W 073°58'0 0.0
2017-Jun-22 17:30N 40°45' W 073°58'0 0.1
2017-Jun-22 17:00N 40°45' W 073°58'0 0.1
2017-Jun-22 16:30N 40°45' W 073°58'0 0.0
2017-Jun-22 16:00N 40°45' W 073°58'0 0.0
2017-Jun-22 15:30N 40°45' W 073°58'0 0.0
2017-Jun-22 15:00N 40°45' W 073°58'0 0.0
2017-Jun-22 14:30N 40°45' W 073°58'6 6.3
2017-Jun-22 13:31N 40°39' W 074°02'1012.2
2017-Jun-22 12:40N 40°29' W 074°01'634.9
2017-Jun-22 12:30N 40°34' W 074°03'1121.4
2017-Jun-22 12:00N 40°45' W 073°58'613.0
2017-Jun-22 11:30N 40°39' W 074°02'1421.8
2017-Jun-22 10:52N 40°25' W 074°02'2 5.0
2017-Jun-22 10:30N 40°25' W 073°60'0 0.0
2017-Jun-22 00:41N 40°25' W 073°60'2 9.3
2017-Jun-22 00:29N 40°25' W 074°02'1225.5
2017-Jun-22 00:00N 40°37' W 074°03'816.3
2017-Jun-21 23:30N 40°45' W 073°58'611.7
2017-Jun-21 23:01N 40°40' W 074°02'1530.0
2017-Jun-21 22:30N 40°25' W 073°60'510.1
2017-Jun-21 22:00N 40°29' W 074°02'1326.2
2017-Jun-21 21:31N 40°42' W 074°00'3 5.8
2017-Jun-21 21:00N 40°45' W 073°58'1019.5
2017-Jun-21 20:30N 40°36' W 074°03'1020.2
2017-Jun-21 20:00N 40°25' W 074°02'610.6
2017-Jun-21 19:23N 40°32' W 074°02'1127.9
2017-Jun-21 19:01N 40°42' W 074°00'3 5.7
2017-Jun-21 18:30N 40°45' W 073°58'0 0.0
2017-Jun-21 18:00N 40°45' W 073°58'0 0.0
2017-Jun-21 17:30N 40°45' W 073°58'0 0.0
2017-Jun-21 17:01N 40°45' W 073°58'0 0.0
2017-Jun-21 16:30N 40°45' W 073°58'0 0.0
2017-Jun-21 16:01N 40°45' W 073°58'0 0.0
2017-Jun-21 15:31N 40°45' W 073°58'0 0.0
2017-Jun-21 15:00N 40°45' W 073°58'0 0.0
2017-Jun-21 14:30N 40°45' W 073°58'5 5.0
2017-Jun-21 13:31N 40°40' W 074°02'1520.6
2017-Jun-21 12:46N 40°25' W 074°02'828.7
2017-Jun-21 12:31N 40°33' W 074°02'1224.4
2017-Jun-21 12:00N 40°45' W 073°58'713.3
2017-Jun-21 11:31N 40°39' W 074°02'1419.2
2017-Jun-21 10:48N 40°25' W 074°02'2 0.2
2017-Jun-21 00:40N 40°25' W 073°60'1 6.8
2017-Jun-21 00:29N 40°25' W 074°01'1021.6
2017-Jun-21 00:01N 40°36' W 074°03'918.9
2017-Jun-20 23:30N 40°45' W 073°58'714.6
2017-Jun-20 23:01N 40°38' W 074°02'3 2.4
2017-Jun-20 21:51N 40°35' W 074°03'720.6
2017-Jun-20 21:30N 40°42' W 074°00'3 5.7
2017-Jun-20 21:00N 40°45' W 073°58'918.8
2017-Jun-20 20:31N 40°36' W 074°03'4 3.3
2017-Jun-20 19:23N 40°32' W 074°02'1026.4
2017-Jun-20 19:00N 40°42' W 074°00'3 5.9
2017-Jun-20 18:30N 40°45' W 073°58'0 0.0
2017-Jun-20 18:00N 40°45' W 073°58'0 0.0
2017-Jun-20 17:30N 40°45' W 073°58'0 0.0
2017-Jun-20 17:00N 40°45' W 073°58'0 0.0
2017-Jun-20 16:30N 40°45' W 073°58'0 0.1
2017-Jun-20 16:00N 40°45' W 073°58'0 0.1
2017-Jun-20 15:30N 40°45' W 073°58'0 0.0
2017-Jun-20 15:00N 40°45' W 073°58'0 0.1
2017-Jun-20 14:00N 40°45' W 073°58'5 9.6
2017-Jun-20 13:31N 40°41' W 074°02'1529.4
2017-Jun-20 12:59N 40°25' W 074°02'918.7
2017-Jun-20 12:30N 40°34' W 074°03'1122.3
2017-Jun-20 12:01N 40°45' W 073°58'713.9
2017-Jun-20 11:30N 40°38' W 074°02'13 1.5
2017-Jun-20 02:45N 40°25' W 074°01'818.8
2017-Jun-20 02:19N 40°34' W 074°02'928.7
2017-Jun-20 02:01N 40°42' W 074°00'3 5.9
2017-Jun-20 01:31N 40°45' W 073°58'918.8
2017-Jun-20 01:00N 40°36' W 074°02'1018.8
2017-Jun-20 00:27N 40°25' W 074°01'1022.7
2017-Jun-20 00:00N 40°36' W 074°03'1019.1
2017-Jun-19 23:30N 40°45' W 073°58'612.0
2017-Jun-19 23:01N 40°39' W 074°02'6 5.4
2017-Jun-19 21:52N 40°33' W 074°02'926.0
2017-Jun-19 21:30N 40°42' W 074°00'3 5.8
2017-Jun-19 21:00N 40°45' W 073°58'816.7
2017-Jun-19 20:30N 40°37' W 074°03'1217.6
2017-Jun-19 19:50N 40°25' W 074°01'614.1
2017-Jun-19 19:23N 40°32' W 074°02'1127.8
2017-Jun-19 19:01N 40°42' W 074°00'3 5.8
2017-Jun-19 18:30N 40°45' W 073°58'0 0.0
2017-Jun-19 18:00N 40°45' W 073°58'0 0.0
2017-Jun-19 17:30N 40°45' W 073°58'817.2
2017-Jun-19 17:00N 40°37' W 074°03'1010.3
2017-Jun-19 16:01N 40°27' W 074°01'127.8
2017-Jun-19 16:00N 40°28' W 074°01'1224.5
2017-Jun-19 15:31N 40°40' W 074°01'510.3
2017-Jun-19 15:01N 40°44' W 073°58'815.3
2017-Jun-19 14:31N 40°37' W 074°03'8 7.2
2017-Jun-19 13:28N 40°30' W 074°02'1226.8
2017-Jun-19 13:00N 40°42' W 074°00'3 5.8
2017-Jun-19 12:30N 40°45' W 073°58'815.6
2017-Jun-19 12:01N 40°38' W 074°03'1213.3
2017-Jun-19 11:05N 40°25' W 074°02'2 0.2
2017-Jun-19 01:59N 40°27' W 074°01'1532.2
2017-Jun-19 01:31N 40°42' W 074°00'3 5.8
2017-Jun-19 01:00N 40°45' W 073°58'3 5.9
2017-Jun-19 00:30N 40°42' W 074°00'1427.3
2017-Jun-19 00:00N 40°29' W 074°02'5 6.2
2017-Jun-18 23:11N 40°34' W 074°02'632.7
2017-Jun-18 23:00N 40°39' W 074°02'611.5
2017-Jun-18 22:30N 40°45' W 073°58'1528.3
2017-Jun-18 22:00N 40°30' W 074°02'0 0.3
2017-Jun-18 21:16N 40°30' W 074°02'831.8
2017-Jun-18 21:00N 40°38' W 074°03'714.1
2017-Jun-18 20:30N 40°45' W 073°58'1122.5
2017-Jun-18 20:00N 40°34' W 074°02'9 5.8
2017-Jun-18 18:22N 40°25' W 073°60'718.9
2017-Jun-18 17:59N 40°32' W 074°02'1122.1
2017-Jun-18 17:31N 40°42' W 074°00'2 4.8
2017-Jun-18 17:01N 40°40' W 074°02'1512.3
2017-Jun-18 15:45N 40°25' W 073°60'819.6
2017-Jun-18 15:20N 40°32' W 074°02'1029.8
2017-Jun-18 15:00N 40°42' W 074°00'3 3.3
2017-Jun-18 14:01N 40°39' W 074°02'11 9.5
2017-Jun-18 12:49N 40°28' W 074°01'824.4
2017-Jun-18 12:30N 40°36' W 074°03'1019.4
2017-Jun-18 12:00N 40°45' W 073°58'2 4.6
2017-Jun-18 11:31N 40°42' W 073°59'1122.8
2017-Jun-18 11:00N 40°31' W 074°02'6 0.7
2017-Jun-18 02:13N 40°25' W 074°00'524.3
2017-Jun-18 02:00N 40°30' W 074°02'1224.7
2017-Jun-18 01:30N 40°42' W 074°00'3 5.7
2017-Jun-18 01:00N 40°45' W 073°58'1 1.6
2017-Jun-18 00:31N 40°44' W 073°58'1019.3
2017-Jun-18 00:00N 40°35' W 074°02'1018.3
2017-Jun-17 23:26N 40°25' W 073°60'1329.7
2017-Jun-17 23:00N 40°37' W 074°03'816.2
2017-Jun-17 22:30N 40°45' W 073°58'  

Dump ship's entire track history